sensor_id;sensor_type;location;lat;lon;timestamp;pressure;altitude;pressure_sealevel;temperature;humidity
10832;BME280;5469;48.574;8.768;2022-10-30T00:02:19;95320.16;;;19.23;47.83
10832;BME280;5469;48.574;8.768;2022-10-30T00:04:52;95317.59;;;19.35;47.66
10832;BME280;5469;48.574;8.768;2022-10-30T00:07:27;95315.25;;;19.33;47.08
10832;BME280;5469;48.574;8.768;2022-10-30T00:10:00;95312.25;;;19.52;46.48
10832;BME280;5469;48.574;8.768;2022-10-30T00:12:34;95307.81;;;19.39;46.55
10832;BME280;5469;48.574;8.768;2022-10-30T00:15:08;95300.41;;;19.36;46.32
10832;BME280;5469;48.574;8.768;2022-10-30T00:17:42;95301.16;;;19.45;45.78
10832;BME280;5469;48.574;8.768;2022-10-30T00:20:15;95302.13;;;19.49;45.70
10832;BME280;5469;48.574;8.768;2022-10-30T00:22:50;95303.06;;;19.45;46.29
10832;BME280;5469;48.574;8.768;2022-10-30T00:25:23;95303.25;;;19.31;46.50
10832;BME280;5469;48.574;8.768;2022-10-30T00:27:57;95307.19;;;19.42;45.62
10832;BME280;5469;48.574;8.768;2022-10-30T00:30:32;95304.34;;;19.47;45.88
10832;BME280;5469;48.574;8.768;2022-10-30T00:33:05;95306.88;;;19.35;46.65
10832;BME280;5469;48.574;8.768;2022-10-30T00:35:47;95304.97;;;19.27;47.19
10832;BME280;5469;48.574;8.768;2022-10-30T00:38:21;95300.56;;;19.31;46.65
10832;BME280;5469;48.574;8.768;2022-10-30T00:40:55;95306.88;;;19.17;46.79
10832;BME280;5469;48.574;8.768;2022-10-30T00:43:32;95310.50;;;19.21;46.71
10832;BME280;5469;48.574;8.768;2022-10-30T00:46:12;95308.59;;;19.22;46.92
10832;BME280;5469;48.574;8.768;2022-10-30T00:48:51;95301.31;;;19.05;48.43
10832;BME280;5469;48.574;8.768;2022-10-30T00:51:27;95317.13;;;19.15;48.64
10832;BME280;5469;48.574;8.768;2022-10-30T00:54:04;95307.31;;;19.11;49.23
10832;BME280;5469;48.574;8.768;2022-10-30T00:56:39;95310.31;;;18.92;49.91
10832;BME280;5469;48.574;8.768;2022-10-30T00:59:17;95311.53;;;18.86;50.48
10832;BME280;5469;48.574;8.768;2022-10-30T01:01:53;95315.59;;;18.74;50.89
10832;BME280;5469;48.574;8.768;2022-10-30T01:04:27;95310.78;;;18.54;51.86
10832;BME280;5469;48.574;8.768;2022-10-30T01:07:06;95313.09;;;18.38;52.84
10832;BME280;5469;48.574;8.768;2022-10-30T01:09:44;95301.97;;;18.62;52.09
10832;BME280;5469;48.574;8.768;2022-10-30T01:12:18;95300.25;;;18.58;51.70
10832;BME280;5469;48.574;8.768;2022-10-30T01:14:55;95301.66;;;18.55;50.67
10832;BME280;5469;48.574;8.768;2022-10-30T01:17:50;95299.50;;;18.74;49.40
10832;BME280;5469;48.574;8.768;2022-10-30T01:20:51;95302.94;;;18.66;49.38
10832;BME280;5469;48.574;8.768;2022-10-30T01:23:36;95297.19;;;18.82;48.11
10832;BME280;5469;48.574;8.768;2022-10-30T01:26:20;95296.53;;;18.85;47.68
10832;BME280;5469;48.574;8.768;2022-10-30T01:29:19;95288.63;;;18.88;47.92
10832;BME280;5469;48.574;8.768;2022-10-30T01:32:10;95286.44;;;18.90;46.89
10832;BME280;5469;48.574;8.768;2022-10-30T01:35:03;95284.09;;;19.06;45.40
10832;BME280;5469;48.574;8.768;2022-10-30T01:37:41;95281.56;;;19.18;44.19
10832;BME280;5469;48.574;8.768;2022-10-30T01:40:17;95281.56;;;19.18;44.14
10832;BME280;5469;48.574;8.768;2022-10-30T01:42:54;95280.28;;;19.25;44.01
10832;BME280;5469;48.574;8.768;2022-10-30T01:45:39;95274.75;;;19.30;43.55
10832;BME280;5469;48.574;8.768;2022-10-30T01:48:29;95279.97;;;19.35;43.21
10832;BME280;5469;48.574;8.768;2022-10-30T01:51:14;95270.66;;;19.32;43.02
10832;BME280;5469;48.574;8.768;2022-10-30T01:53:56;95274.75;;;19.30;43.93
10832;BME280;5469;48.574;8.768;2022-10-30T01:56:37;95271.59;;;19.19;44.53
10832;BME280;5469;48.574;8.768;2022-10-30T01:59:17;95277.78;;;19.11;45.52
10832;BME280;5469;48.574;8.768;2022-10-30T02:01:53;95276.03;;;18.97;45.40
10832;BME280;5469;48.574;8.768;2022-10-30T02:04:27;95274.13;;;18.89;45.78
10832;BME280;5469;48.574;8.768;2022-10-30T02:07:00;95273.03;;;18.99;46.26
10832;BME280;5469;48.574;8.768;2022-10-30T02:09:34;95271.41;;;18.81;46.35
10832;BME280;5469;48.574;8.768;2022-10-30T02:12:08;95265.34;;;18.66;46.64
10832;BME280;5469;48.574;8.768;2022-10-30T02:14:46;95269.63;;;18.67;45.89
10832;BME280;5469;48.574;8.768;2022-10-30T02:17:20;95264.16;;;18.90;45.33
10832;BME280;5469;48.574;8.768;2022-10-30T02:19:54;95260.69;;;18.98;45.51
10832;BME280;5469;48.574;8.768;2022-10-30T02:22:29;95262.63;;;19.15;45.76
10832;BME280;5469;48.574;8.768;2022-10-30T02:25:03;95258.81;;;19.07;45.37
10832;BME280;5469;48.574;8.768;2022-10-30T02:27:37;95254.09;;;19.04;44.89
10832;BME280;5469;48.574;8.768;2022-10-30T02:30:11;95250.28;;;19.05;44.51
10832;BME280;5469;48.574;8.768;2022-10-30T02:32:45;95251.41;;;19.04;43.56
10832;BME280;5469;48.574;8.768;2022-10-30T02:35:18;95251.56;;;18.99;42.91
10832;BME280;5469;48.574;8.768;2022-10-30T02:37:53;95241.75;;;19.03;45.19
10832;BME280;5469;48.574;8.768;2022-10-30T02:40:27;95244.44;;;19.03;43.60
10832;BME280;5469;48.574;8.768;2022-10-30T02:43:00;95244.91;;;19.05;43.18
10832;BME280;5469;48.574;8.768;2022-10-30T02:45:33;95244.28;;;19.08;44.96
10832;BME280;5469;48.574;8.768;2022-10-30T02:48:07;95241.59;;;18.99;46.53
10832;BME280;5469;48.574;8.768;2022-10-30T02:50:40;95243.66;;;18.94;47.50
10832;BME280;5469;48.574;8.768;2022-10-30T02:53:15;95244.88;;;18.88;47.47
10832;BME280;5469;48.574;8.768;2022-10-30T02:55:48;95252.59;;;18.81;48.88
10832;BME280;5469;48.574;8.768;2022-10-30T02:58:22;95257.44;;;18.61;49.27
10832;BME280;5469;48.574;8.768;2022-10-30T03:00:55;95254.91;;;18.56;48.82
10832;BME280;5469;48.574;8.768;2022-10-30T03:03:29;95259.66;;;18.59;48.51
10832;BME280;5469;48.574;8.768;2022-10-30T03:06:04;95262.09;;;18.29;50.30
10832;BME280;5469;48.574;8.768;2022-10-30T03:08:39;95260.19;;;18.21;50.36
10832;BME280;5469;48.574;8.768;2022-10-30T03:11:14;95259.47;;;18.07;51.29
10832;BME280;5469;48.574;8.768;2022-10-30T03:13:48;95251.91;;;18.09;51.47
10832;BME280;5469;48.574;8.768;2022-10-30T03:16:24;95253.84;;;18.17;51.40
10832;BME280;5469;48.574;8.768;2022-10-30T03:19:00;95251.28;;;18.12;50.20
10832;BME280;5469;48.574;8.768;2022-10-30T03:21:33;95250.25;;;17.45;52.63
10832;BME280;5469;48.574;8.768;2022-10-30T03:24:08;95258.19;;;17.28;52.54
10832;BME280;5469;48.574;8.768;2022-10-30T03:26:41;95256.84;;;17.84;51.67
10832;BME280;5469;48.574;8.768;2022-10-30T03:29:15;95253.06;;;17.85;52.00
10832;BME280;5469;48.574;8.768;2022-10-30T03:31:48;95269.81;;;17.68;53.64
10832;BME280;5469;48.574;8.768;2022-10-30T03:34:21;95257.31;;;17.86;52.08
10832;BME280;5469;48.574;8.768;2022-10-30T03:36:55;95259.88;;;17.92;51.29
10832;BME280;5469;48.574;8.768;2022-10-30T03:39:30;95264.34;;;18.05;51.24
10832;BME280;5469;48.574;8.768;2022-10-30T03:42:03;95269.84;;;18.00;51.77
10832;BME280;5469;48.574;8.768;2022-10-30T03:44:37;95266.09;;;18.01;51.02
10832;BME280;5469;48.574;8.768;2022-10-30T03:47:10;95267.66;;;18.02;51.11
10832;BME280;5469;48.574;8.768;2022-10-30T03:49:43;95266.69;;;17.98;51.38
10832;BME280;5469;48.574;8.768;2022-10-30T03:52:17;95264.63;;;17.95;51.11
10832;BME280;5469;48.574;8.768;2022-10-30T03:54:52;95263.19;;;17.88;51.39
10832;BME280;5469;48.574;8.768;2022-10-30T03:57:25;95269.31;;;17.89;48.83
10832;BME280;5469;48.574;8.768;2022-10-30T03:59:58;95268.38;;;17.85;49.88
10832;BME280;5469;48.574;8.768;2022-10-30T04:02:32;95271.34;;;17.83;49.13
10832;BME280;5469;48.574;8.768;2022-10-30T04:05:06;95266.16;;;17.87;49.29
10832;BME280;5469;48.574;8.768;2022-10-30T04:07:39;95263.97;;;17.89;49.28
10832;BME280;5469;48.574;8.768;2022-10-30T04:10:14;95271.97;;;17.80;49.02
10832;BME280;5469;48.574;8.768;2022-10-30T04:12:47;95276.31;;;17.76;50.78
10832;BME280;5469;48.574;8.768;2022-10-30T04:15:21;95267.63;;;17.71;47.82
10832;BME280;5469;48.574;8.768;2022-10-30T04:17:54;95268.19;;;17.81;49.50
10832;BME280;5469;48.574;8.768;2022-10-30T04:20:28;95269.50;;;17.70;46.18
10832;BME280;5469;48.574;8.768;2022-10-30T04:23:03;95268.75;;;17.78;44.56
10832;BME280;5469;48.574;8.768;2022-10-30T04:25:38;95263.19;;;17.88;46.52
10832;BME280;5469;48.574;8.768;2022-10-30T04:28:12;95259.16;;;17.77;48.82
10832;BME280;5469;48.574;8.768;2022-10-30T04:30:45;95263.66;;;17.68;47.47
10832;BME280;5469;48.574;8.768;2022-10-30T04:33:19;95263.66;;;17.68;48.19
10832;BME280;5469;48.574;8.768;2022-10-30T04:35:52;95268.66;;;17.61;47.92
10832;BME280;5469;48.574;8.768;2022-10-30T04:38:25;95260.16;;;17.59;47.47
10832;BME280;5469;48.574;8.768;2022-10-30T04:41:00;95271.13;;;17.49;46.68
10832;BME280;5469;48.574;8.768;2022-10-30T04:43:34;95267.00;;;17.74;43.80
10832;BME280;5469;48.574;8.768;2022-10-30T04:46:07;95260.38;;;17.71;47.29
10832;BME280;5469;48.574;8.768;2022-10-30T04:48:44;95265.56;;;17.67;45.98
10832;BME280;5469;48.574;8.768;2022-10-30T04:51:17;95261.97;;;17.50;46.48
10832;BME280;5469;48.574;8.768;2022-10-30T04:53:50;95261.59;;;17.42;45.14
10832;BME280;5469;48.574;8.768;2022-10-30T04:56:26;95265.16;;;17.52;44.55
10832;BME280;5469;48.574;8.768;2022-10-30T04:58:59;95258.13;;;17.64;44.20
10832;BME280;5469;48.574;8.768;2022-10-30T05:01:33;95261.19;;;17.49;45.61
10832;BME280;5469;48.574;8.768;2022-10-30T05:04:06;95260.16;;;17.59;44.14
10832;BME280;5469;48.574;8.768;2022-10-30T05:06:40;95258.00;;;17.47;45.25
10832;BME280;5469;48.574;8.768;2022-10-30T05:09:13;95255.63;;;17.45;45.98
10832;BME280;5469;48.574;8.768;2022-10-30T05:11:48;95256.25;;;17.42;44.82
10832;BME280;5469;48.574;8.768;2022-10-30T05:14:21;95260.03;;;17.41;45.54
10832;BME280;5469;48.574;8.768;2022-10-30T05:16:54;95252.00;;;17.41;45.65
10832;BME280;5469;48.574;8.768;2022-10-30T05:19:28;95250.25;;;17.45;46.67
10832;BME280;5469;48.574;8.768;2022-10-30T05:22:01;95250.72;;;17.39;45.32
10832;BME280;5469;48.574;8.768;2022-10-30T05:24:34;95248.03;;;17.39;46.09
10832;BME280;5469;48.574;8.768;2022-10-30T05:27:09;95250.88;;;17.42;45.83
10832;BME280;5469;48.574;8.768;2022-10-30T05:29:42;95242.34;;;17.40;44.99
10832;BME280;5469;48.574;8.768;2022-10-30T05:32:16;95241.63;;;17.49;43.90
10832;BME280;5469;48.574;8.768;2022-10-30T05:34:49;95244.78;;;17.51;46.23
10832;BME280;5469;48.574;8.768;2022-10-30T05:37:22;95245.88;;;17.27;45.49
10832;BME280;5469;48.574;8.768;2022-10-30T05:39:56;95242.41;;;17.27;45.17
10832;BME280;5469;48.574;8.768;2022-10-30T05:42:30;95245.28;;;17.53;44.59
10832;BME280;5469;48.574;8.768;2022-10-30T05:45:05;95249.91;;;17.38;44.70
10832;BME280;5469;48.574;8.768;2022-10-30T05:47:38;95251.78;;;17.15;45.17
10832;BME280;5469;48.574;8.768;2022-10-30T05:50:11;95254.38;;;17.07;46.24
10832;BME280;5469;48.574;8.768;2022-10-30T05:52:45;95253.31;;;17.08;47.23
10832;BME280;5469;48.574;8.768;2022-10-30T05:55:18;95252.59;;;17.16;45.67
10832;BME280;5469;48.574;8.768;2022-10-30T05:57:56;95251.66;;;16.98;47.42
10832;BME280;5469;48.574;8.768;2022-10-30T06:00:31;95252.03;;;17.05;46.94
10832;BME280;5469;48.574;8.768;2022-10-30T06:03:06;95256.22;;;16.97;48.10
10832;BME280;5469;48.574;8.768;2022-10-30T06:05:44;95267.09;;;17.01;47.86
10832;BME280;5469;48.574;8.768;2022-10-30T06:08:17;95258.00;;;16.88;48.00
10832;BME280;5469;48.574;8.768;2022-10-30T06:10:53;95261.69;;;16.92;48.31
10832;BME280;5469;48.574;8.768;2022-10-30T06:13:27;95257.63;;;16.95;48.49
10832;BME280;5469;48.574;8.768;2022-10-30T06:16:01;95254.84;;;16.86;48.36
10832;BME280;5469;48.574;8.768;2022-10-30T06:18:34;95252.94;;;17.00;49.00
10832;BME280;5469;48.574;8.768;2022-10-30T06:21:07;95261.94;;;17.05;48.36
10832;BME280;5469;48.574;8.768;2022-10-30T06:23:41;95258.00;;;16.88;48.14
10832;BME280;5469;48.574;8.768;2022-10-30T06:26:14;95257.56;;;17.09;47.65
10832;BME280;5469;48.574;8.768;2022-10-30T06:28:49;95267.31;;;17.05;47.90
10832;BME280;5469;48.574;8.768;2022-10-30T06:31:22;95262.69;;;17.19;48.05
10832;BME280;5469;48.574;8.768;2022-10-30T06:33:55;95256.59;;;17.05;48.07
10832;BME280;5469;48.574;8.768;2022-10-30T06:36:29;95251.78;;;17.15;48.52
10832;BME280;5469;48.574;8.768;2022-10-30T06:39:02;95259.50;;;17.17;49.18
10832;BME280;5469;48.574;8.768;2022-10-30T06:41:36;95260.75;;;17.11;48.76
10832;BME280;5469;48.574;8.768;2022-10-30T06:44:10;95263.06;;;17.26;47.73
10832;BME280;5469;48.574;8.768;2022-10-30T06:46:45;95262.44;;;17.29;48.61
10832;BME280;5469;48.574;8.768;2022-10-30T06:49:18;95261.72;;;17.37;47.09
10832;BME280;5469;48.574;8.768;2022-10-30T06:51:51;95271.69;;;17.45;47.21
10832;BME280;5469;48.574;8.768;2022-10-30T06:54:25;95262.22;;;17.39;47.33
10832;BME280;5469;48.574;8.768;2022-10-30T06:56:58;95271.94;;;17.58;47.82
10832;BME280;5469;48.574;8.768;2022-10-30T06:59:33;95261.19;;;17.49;48.28
10832;BME280;5469;48.574;8.768;2022-10-30T07:02:07;95265.47;;;17.14;48.88
10832;BME280;5469;48.574;8.768;2022-10-30T07:04:41;95275.34;;;17.27;48.76
10832;BME280;5469;48.574;8.768;2022-10-30T07:07:16;95270.47;;;17.07;49.43
10832;BME280;5469;48.574;8.768;2022-10-30T07:09:50;95271.59;;;17.28;48.83
10832;BME280;5469;48.574;8.768;2022-10-30T07:12:23;95272.69;;;17.27;48.32
10832;BME280;5469;48.574;8.768;2022-10-30T07:14:58;95274.19;;;17.19;48.73
10832;BME280;5469;48.574;8.768;2022-10-30T07:17:31;95271.28;;;17.07;48.76
10832;BME280;5469;48.574;8.768;2022-10-30T07:20:05;95273.50;;;17.14;49.31
10832;BME280;5469;48.574;8.768;2022-10-30T07:22:39;95274.06;;;17.24;49.00
10832;BME280;5469;48.574;8.768;2022-10-30T07:25:12;95272.19;;;17.25;49.99
10832;BME280;5469;48.574;8.768;2022-10-30T07:27:47;95266.09;;;17.11;48.69
10832;BME280;5469;48.574;8.768;2022-10-30T07:30:24;95269.81;;;17.23;48.54
10832;BME280;5469;48.574;8.768;2022-10-30T07:32:59;95282.78;;;17.08;49.21
10832;BME280;5469;48.574;8.768;2022-10-30T07:35:34;95271.81;;;17.18;48.41
10832;BME280;5469;48.574;8.768;2022-10-30T07:38:10;95272.19;;;17.25;48.32
10832;BME280;5469;48.574;8.768;2022-10-30T07:40:43;95274.38;;;17.45;48.23
10832;BME280;5469;48.574;8.768;2022-10-30T07:43:16;95264.03;;;17.30;48.77
10832;BME280;5469;48.574;8.768;2022-10-30T07:45:51;95266.00;;;17.38;50.44
10832;BME280;5469;48.574;8.768;2022-10-30T07:48:25;95274.72;;;17.44;50.02
10832;BME280;5469;48.574;8.768;2022-10-30T07:50:58;95277.22;;;17.72;54.04
10832;BME280;5469;48.574;8.768;2022-10-30T07:53:32;95282.06;;;17.83;51.94
10832;BME280;5469;48.574;8.768;2022-10-30T07:56:05;95278.13;;;17.81;51.41
10832;BME280;5469;48.574;8.768;2022-10-30T07:58:39;95284.63;;;17.88;52.36
10832;BME280;5469;48.574;8.768;2022-10-30T08:01:14;95271.44;;;18.01;51.63
10832;BME280;5469;48.574;8.768;2022-10-30T08:03:47;95276.94;;;17.96;49.42
10832;BME280;5469;48.574;8.768;2022-10-30T08:06:21;95269.53;;;17.93;50.60
10832;BME280;5469;48.574;8.768;2022-10-30T08:08:55;95269.94;;;18.17;52.60
10832;BME280;5469;48.574;8.768;2022-10-30T08:11:28;95272.75;;;18.12;51.33
10832;BME280;5469;48.574;8.768;2022-10-30T08:16:44;95283.22;;;18.22;50.71
10832;BME280;5469;48.574;8.768;2022-10-30T08:19:17;95283.38;;;18.26;51.70
10832;BME280;5469;48.574;8.768;2022-10-30T08:21:51;95284.34;;;18.30;50.55
10832;BME280;5469;48.574;8.768;2022-10-30T08:24:24;95281.88;;;18.42;49.43
10832;BME280;5469;48.574;8.768;2022-10-30T08:26:57;95279.34;;;18.46;50.14
10832;BME280;5469;48.574;8.768;2022-10-30T08:29:31;95282.31;;;18.36;50.88
10832;BME280;5469;48.574;8.768;2022-10-30T08:32:07;95276.31;;;18.39;49.52
10832;BME280;5469;48.574;8.768;2022-10-30T08:34:40;95277.94;;;18.40;49.48
10832;BME280;5469;48.574;8.768;2022-10-30T08:37:13;95279.66;;;18.44;50.62
10832;BME280;5469;48.574;8.768;2022-10-30T08:39:48;95280.78;;;18.52;49.01
10832;BME280;5469;48.574;8.768;2022-10-30T08:42:21;95274.47;;;18.48;48.94
10832;BME280;5469;48.574;8.768;2022-10-30T08:44:54;95282.72;;;18.60;49.94
10832;BME280;5469;48.574;8.768;2022-10-30T08:47:29;95278.94;;;18.61;49.15
10832;BME280;5469;48.574;8.768;2022-10-30T08:50:03;95277.81;;;18.62;49.46
10832;BME280;5469;48.574;8.768;2022-10-30T08:52:36;95278.72;;;18.89;49.58
10832;BME280;5469;48.574;8.768;2022-10-30T08:55:10;95275.88;;;18.94;49.93
10832;BME280;5469;48.574;8.768;2022-10-30T08:57:43;95279.34;;;18.94;47.55
10832;BME280;5469;48.574;8.768;2022-10-30T09:00:17;95274.78;;;19.12;48.07
10832;BME280;5469;48.574;8.768;2022-10-30T09:02:52;95271.16;;;19.26;47.74
10832;BME280;5469;48.574;8.768;2022-10-30T09:05:25;95283.16;;;19.37;46.43
10832;BME280;5469;48.574;8.768;2022-10-30T09:07:59;95286.81;;;19.67;46.82
10832;BME280;5469;48.574;8.768;2022-10-30T09:10:32;95281.22;;;19.63;46.26
10832;BME280;5469;48.574;8.768;2022-10-30T09:13:06;95278.06;;;19.79;45.34
10832;BME280;5469;48.574;8.768;2022-10-30T09:15:40;95275.34;;;20.43;46.77
10832;BME280;5469;48.574;8.768;2022-10-30T09:18:15;95282.63;;;20.81;43.05
10832;BME280;5469;48.574;8.768;2022-10-30T09:20:48;95277.47;;;21.39;43.53
10832;BME280;5469;48.574;8.768;2022-10-30T09:23:21;95275.47;;;21.69;42.18
10832;BME280;5469;48.574;8.768;2022-10-30T09:25:56;95278.06;;;23.22;40.79
10832;BME280;5469;48.574;8.768;2022-10-30T09:28:29;95275.63;;;23.17;39.89
10832;BME280;5469;48.574;8.768;2022-10-30T09:31:03;95281.56;;;24.51;39.34
10832;BME280;5469;48.574;8.768;2022-10-30T09:33:37;95285.66;;;25.27;36.97
10832;BME280;5469;48.574;8.768;2022-10-30T09:36:11;95286.50;;;24.96;37.12
10832;BME280;5469;48.574;8.768;2022-10-30T09:38:44;95293.69;;;25.98;36.00
10832;BME280;5469;48.574;8.768;2022-10-30T09:41:36;95292.84;;;26.60;34.55
10832;BME280;5469;48.574;8.768;2022-10-30T09:44:24;95283.47;;;27.67;34.86
10832;BME280;5469;48.574;8.768;2022-10-30T09:47:22;95282.66;;;27.63;32.73
10832;BME280;5469;48.574;8.768;2022-10-30T09:50:17;95278.16;;;28.52;31.86
10832;BME280;5469;48.574;8.768;2022-10-30T09:53:02;95281.63;;;28.08;32.62
10832;BME280;5469;48.574;8.768;2022-10-30T09:55:45;95278.59;;;29.06;31.08
10832;BME280;5469;48.574;8.768;2022-10-30T09:58:24;95279.91;;;30.89;30.78
10832;BME280;5469;48.574;8.768;2022-10-30T10:01:10;95281.47;;;31.08;30.41
10832;BME280;5469;48.574;8.768;2022-10-30T10:03:56;95282.41;;;31.86;29.50
10832;BME280;5469;48.574;8.768;2022-10-30T10:06:35;95285.25;;;32.94;26.53
10832;BME280;5469;48.574;8.768;2022-10-30T10:09:16;95282.09;;;33.37;26.70
10832;BME280;5469;48.574;8.768;2022-10-30T10:11:54;95291.03;;;34.13;24.37
10832;BME280;5469;48.574;8.768;2022-10-30T10:14:31;95290.91;;;33.59;25.25
10832;BME280;5469;48.574;8.768;2022-10-30T10:17:11;95284.13;;;34.29;24.05
10832;BME280;5469;48.574;8.768;2022-10-30T10:19:48;95280.19;;;35.08;23.72
10832;BME280;5469;48.574;8.768;2022-10-30T10:22:28;95285.34;;;35.26;22.93
10832;BME280;5469;48.574;8.768;2022-10-30T10:25:07;95286.09;;;35.70;22.85
10832;BME280;5469;48.574;8.768;2022-10-30T10:27:51;95278.00;;;36.19;22.71
10832;BME280;5469;48.574;8.768;2022-10-30T10:30:31;95283.38;;;36.26;22.77
10832;BME280;5469;48.574;8.768;2022-10-30T10:33:26;95277.34;;;36.31;21.54
10832;BME280;5469;48.574;8.768;2022-10-30T10:36:15;95277.34;;;36.31;21.54
10832;BME280;5469;48.574;8.768;2022-10-30T10:39:06;95273.31;;;37.53;22.07
10832;BME280;5469;48.574;8.768;2022-10-30T10:42:01;95272.81;;;37.06;21.66
10832;BME280;5469;48.574;8.768;2022-10-30T10:44:46;95272.94;;;37.61;20.98
10832;BME280;5469;48.574;8.768;2022-10-30T10:47:35;95275.94;;;36.92;21.26
10832;BME280;5469;48.574;8.768;2022-10-30T10:50:18;95269.84;;;37.59;22.28
10832;BME280;5469;48.574;8.768;2022-10-30T10:52:56;95269.56;;;37.70;21.71
10832;BME280;5469;48.574;8.768;2022-10-30T10:55:36;95270.97;;;37.74;21.16
10832;BME280;5469;48.574;8.768;2022-10-30T10:58:14;95270.72;;;37.56;20.54
10832;BME280;5469;48.574;8.768;2022-10-30T11:00:51;95266.34;;;36.80;21.78
10832;BME280;5469;48.574;8.768;2022-10-30T11:03:31;95266.44;;;37.38;21.10
10832;BME280;5469;48.574;8.768;2022-10-30T11:06:17;95264.91;;;35.66;19.69
10832;BME280;5469;48.574;8.768;2022-10-30T11:08:53;95268.75;;;36.78;18.86
10832;BME280;5469;48.574;8.768;2022-10-30T11:11:33;95264.94;;;36.39;21.09
10832;BME280;5469;48.574;8.768;2022-10-30T11:14:12;95263.63;;;35.91;19.18
10832;BME280;5469;48.574;8.768;2022-10-30T11:16:58;95270.22;;;34.40;20.37
10832;BME280;5469;48.574;8.768;2022-10-30T11:19:32;95271.91;;;33.72;22.59
10832;BME280;5469;48.574;8.768;2022-10-30T11:22:21;95273.56;;;33.28;20.97
10832;BME280;5469;48.574;8.768;2022-10-30T11:25:17;95268.59;;;33.16;22.71
10832;BME280;5469;48.574;8.768;2022-10-30T11:27:55;95268.59;;;33.16;21.91
10832;BME280;5469;48.574;8.768;2022-10-30T11:30:29;95263.63;;;33.76;21.51
10832;BME280;5469;48.574;8.768;2022-10-30T11:33:21;95267.34;;;33.24;22.94
10832;BME280;5469;48.574;8.768;2022-10-30T11:35:54;95264.97;;;32.81;21.56
10832;BME280;5469;48.574;8.768;2022-10-30T11:38:28;95268.44;;;33.30;22.22
10832;BME280;5469;48.574;8.768;2022-10-30T11:41:01;95270.03;;;33.96;22.24
10832;BME280;5469;48.574;8.768;2022-10-30T11:43:38;95265.50;;;34.40;21.92
10832;BME280;5469;48.574;8.768;2022-10-30T11:46:19;95268.13;;;34.74;22.55
10832;BME280;5469;48.574;8.768;2022-10-30T11:48:54;95263.22;;;34.86;22.38
10832;BME280;5469;48.574;8.768;2022-10-30T11:51:33;95269.75;;;35.19;23.93
10832;BME280;5469;48.574;8.768;2022-10-30T11:54:17;95265.97;;;34.86;21.47
10832;BME280;5469;48.574;8.768;2022-10-30T11:56:54;95259.63;;;34.89;18.83
10832;BME280;5469;48.574;8.768;2022-10-30T11:59:29;95260.16;;;35.47;20.95
10832;BME280;5469;48.574;8.768;2022-10-30T12:02:19;95255.59;;;35.60;21.34
10832;BME280;5469;48.574;8.768;2022-10-30T12:04:53;95263.47;;;34.71;22.43
10832;BME280;5469;48.574;8.768;2022-10-30T12:07:30;95258.56;;;34.55;23.44
10832;BME280;5469;48.574;8.768;2022-10-30T12:10:07;95258.84;;;34.10;23.42
10832;BME280;5469;48.574;8.768;2022-10-30T12:12:55;95254.47;;;33.86;24.67
10832;BME280;5469;48.574;8.768;2022-10-30T12:15:34;95256.56;;;33.40;24.91
10832;BME280;5469;48.574;8.768;2022-10-30T12:18:17;95249.81;;;33.79;25.35
10832;BME280;5469;48.574;8.768;2022-10-30T12:20:53;95247.53;;;34.32;25.21
10832;BME280;5469;48.574;8.768;2022-10-30T12:23:28;95250.03;;;33.65;25.63
10832;BME280;5469;48.574;8.768;2022-10-30T12:26:09;95242.28;;;33.53;25.31
10832;BME280;5469;48.574;8.768;2022-10-30T12:28:52;95240.81;;;34.06;26.38
10832;BME280;5469;48.574;8.768;2022-10-30T12:31:36;95233.66;;;34.66;27.53
10832;BME280;5469;48.574;8.768;2022-10-30T12:34:22;95234.38;;;34.70;25.75
10832;BME280;5469;48.574;8.768;2022-10-30T12:37:05;95224.69;;;35.29;25.58
10832;BME280;5469;48.574;8.768;2022-10-30T12:39:54;95232.22;;;34.58;24.84
10832;BME280;5469;48.574;8.768;2022-10-30T12:42:30;95228.03;;;34.73;23.92
10832;BME280;5469;48.574;8.768;2022-10-30T12:45:12;95228.75;;;34.77;24.30
10832;BME280;5469;48.574;8.768;2022-10-30T12:47:53;95222.09;;;34.51;24.39
10832;BME280;5469;48.574;8.768;2022-10-30T12:50:33;95224.88;;;34.48;20.92
10832;BME280;5469;48.574;8.768;2022-10-30T12:53:23;95222.91;;;34.48;21.16
10832;BME280;5469;48.574;8.768;2022-10-30T12:56:03;95226.25;;;34.36;24.08
10832;BME280;5469;48.574;8.768;2022-10-30T12:58:43;95217.34;;;35.62;23.07
10832;BME280;5469;48.574;8.768;2022-10-30T13:01:23;95216.25;;;35.56;21.26
10832;BME280;5469;48.574;8.768;2022-10-30T13:04:07;95215.84;;;35.78;23.00
10832;BME280;5469;48.574;8.768;2022-10-30T13:06:45;95212.53;;;36.56;22.90
10832;BME280;5469;48.574;8.768;2022-10-30T13:09:26;95212.47;;;36.88;21.94
10832;BME280;5469;48.574;8.768;2022-10-30T13:12:08;95210.16;;;36.87;22.72
10832;BME280;5469;48.574;8.768;2022-10-30T13:14:46;95209.41;;;36.70;23.28
10832;BME280;5469;48.574;8.768;2022-10-30T13:17:22;95199.13;;;37.16;22.14
10832;BME280;5469;48.574;8.768;2022-10-30T13:19:57;95207.38;;;37.03;22.41
10832;BME280;5469;48.574;8.768;2022-10-30T13:22:37;95204.25;;;37.30;22.29
10832;BME280;5469;48.574;8.768;2022-10-30T13:25:17;95204.00;;;36.95;23.54
10832;BME280;5469;48.574;8.768;2022-10-30T13:27:55;95194.63;;;37.22;22.25
10832;BME280;5469;48.574;8.768;2022-10-30T13:30:36;95198.38;;;37.15;22.66
10832;BME280;5469;48.574;8.768;2022-10-30T13:33:14;95198.13;;;36.93;23.04
10832;BME280;5469;48.574;8.768;2022-10-30T13:35:55;95191.78;;;36.47;22.63
10832;BME280;5469;48.574;8.768;2022-10-30T13:38:39;95196.22;;;36.61;23.94
10832;BME280;5469;48.574;8.768;2022-10-30T13:41:21;95200.16;;;36.44;26.30
10832;BME280;5469;48.574;8.768;2022-10-30T13:44:03;95198.50;;;36.14;24.99
10832;BME280;5469;48.574;8.768;2022-10-30T13:46:54;95201.53;;;35.03;26.64
10832;BME280;5469;48.574;8.768;2022-10-30T13:49:46;95197.25;;;34.78;26.76
10832;BME280;5469;48.574;8.768;2022-10-30T13:52:28;95206.13;;;34.66;25.59
10832;BME280;5469;48.574;8.768;2022-10-30T13:55:09;95201.31;;;34.47;26.26
10832;BME280;5469;48.574;8.768;2022-10-30T13:57:50;95202.97;;;34.17;25.03
10832;BME280;5469;48.574;8.768;2022-10-30T14:00:31;95202.63;;;33.84;26.25
10832;BME280;5469;48.574;8.768;2022-10-30T14:03:22;95206.69;;;34.30;25.64
10832;BME280;5469;48.574;8.768;2022-10-30T14:06:07;95210.84;;;34.15;26.33